Aviation Digital Data Service (ADDS)

Output produced by METARs form (2231 UTC 30 March 2017)
found at http://www.aviationweather.gov/adds/metars/
 
KYIP 302105Z 3021/3118 09012G22KT 4SM SHRA BR OVC008 
     TEMPO 3021/3024 2SM TSRA BR BKN004 OVC010CB 
     FM310300 05007KT 2SM -DZ BR OVC005 
     FM310800 06010KT 1/2SM RA FG OVC003 
     FM311000 03004KT 1 1/2SM RA BR OVC004 
     FM311500 36010KT 3SM -SHRA BR OVC010
       
KYKM 302025Z 3020/3118 32018G28KT P6SM FEW100 
     FM310400 29010KT P6SM SKC 
     FM311200 28007KT P6SM FEW200
       
KYNG 301940Z 3020/3118 09012KT P6SM OVC035 
     FM310000 12010G20KT 6SM -TSRA BR SCT035CB OVC050 
     FM310400 15009KT P6SM OVC100 
     FM311100 14007KT 3SM -TSRA BR OVC005CB 
     FM311500 12008KT 4SM -DZ BR OVC003